createdAt,value
2022-11-21T00:00:49.109Z,0
2022-11-21T00:02:05.411Z,0
2022-11-21T00:03:20.713Z,0
2022-11-21T00:04:37.014Z,0
2022-11-21T00:05:53.302Z,0
2022-11-21T00:07:09.597Z,0
2022-11-21T00:08:25.890Z,0
2022-11-21T00:09:42.182Z,0
2022-11-21T00:10:58.485Z,0
2022-11-21T00:12:14.773Z,0
2022-11-21T00:13:31.070Z,0
2022-11-21T00:14:47.363Z,0
2022-11-21T00:16:03.659Z,0
2022-11-21T00:17:19.959Z,0
2022-11-21T00:18:36.250Z,0
2022-11-21T00:19:51.566Z,0
2022-11-21T00:21:07.860Z,0
2022-11-21T00:22:24.161Z,0
2022-11-21T00:23:40.450Z,0
2022-11-21T00:24:56.750Z,0
2022-11-21T00:26:13.049Z,0
2022-11-21T00:27:28.352Z,0
2022-11-21T00:28:44.654Z,0
2022-11-21T00:30:00.947Z,0
2022-11-21T00:31:17.237Z,0
2022-11-21T00:32:33.538Z,0
2022-11-21T00:33:49.837Z,0
2022-11-21T00:35:06.124Z,0
2022-11-21T00:36:22.427Z,0
2022-11-21T00:37:38.714Z,0
2022-11-21T00:38:55.024Z,0
2022-11-21T00:40:11.306Z,0
2022-11-21T00:41:27.607Z,0
2022-11-21T00:42:43.902Z,0
2022-11-21T00:43:59.205Z,0
2022-11-21T00:45:15.516Z,0
2022-11-21T00:46:31.801Z,0
2022-11-21T00:47:48.087Z,0
2022-11-21T00:49:04.390Z,0
2022-11-21T00:50:20.679Z,0
2022-11-21T00:51:36.987Z,0
2022-11-21T00:52:53.287Z,0
2022-11-21T00:54:09.577Z,0
2022-11-21T00:55:25.868Z,0
2022-11-21T00:56:42.152Z,0
2022-11-21T00:57:58.451Z,0
2022-11-21T00:59:14.754Z,0
2022-11-21T01:00:30.067Z,0
2022-11-21T01:01:46.363Z,0
2022-11-21T01:03:02.653Z,0
2022-11-21T01:04:18.950Z,0
2022-11-21T01:05:35.237Z,0
2022-11-21T01:06:51.534Z,0
2022-11-21T01:08:07.840Z,0
2022-11-21T01:09:24.132Z,0
2022-11-21T01:10:40.417Z,0
2022-11-21T01:11:56.721Z,0
2022-11-21T01:13:13.009Z,0
2022-11-21T01:14:29.309Z,0
2022-11-21T01:15:45.605Z,0
2022-11-21T01:17:00.907Z,0
2022-11-21T01:18:17.213Z,0
2022-11-21T01:19:33.500Z,0
2022-11-21T01:20:49.796Z,0
2022-11-21T01:22:06.094Z,0
2022-11-21T01:23:22.398Z,0
2022-11-21T01:24:38.685Z,0
2022-11-21T01:25:54.972Z,0
2022-11-21T01:27:11.265Z,0
2022-11-21T01:28:27.577Z,0
2022-11-21T01:29:43.861Z,0
2022-11-21T01:31:00.158Z,0
2022-11-21T01:32:16.448Z,0
2022-11-21T01:33:31.762Z,0
2022-11-21T01:34:48.066Z,0
2022-11-21T01:36:04.358Z,0
2022-11-21T01:37:20.653Z,0
2022-11-21T01:38:36.945Z,0
2022-11-21T01:39:53.247Z,0
2022-11-21T01:41:09.533Z,0
2022-11-21T01:42:25.825Z,0
2022-11-21T01:43:42.125Z,0
2022-11-21T01:44:58.411Z,0
2022-11-21T01:46:14.726Z,0
2022-11-21T01:47:31.003Z,0
2022-11-21T01:48:47.315Z,0
2022-11-21T01:50:02.619Z,0
2022-11-21T01:51:18.918Z,0
2022-11-21T01:52:35.213Z,0
2022-11-21T01:53:51.493Z,0
2022-11-21T01:55:07.806Z,0
2022-11-21T01:56:24.086Z,0
2022-11-21T01:57:40.378Z,0
2022-11-21T01:58:56.680Z,0
2022-11-21T02:00:12.977Z,0
2022-11-21T02:01:29.272Z,0
2022-11-21T02:02:45.572Z,0
2022-11-21T02:04:01.868Z,0
2022-11-21T02:05:18.147Z,0
2022-11-21T02:06:33.457Z,0
2022-11-21T02:07:49.766Z,0
2022-11-21T02:09:06.051Z,0
2022-11-21T02:10:22.351Z,0
2022-11-21T02:11:38.638Z,0
2022-11-21T02:12:54.938Z,0
2022-11-21T02:14:11.227Z,0
2022-11-21T02:15:27.526Z,0
2022-11-21T02:16:43.833Z,0
2022-11-21T02:18:00.123Z,0
2022-11-21T02:19:16.419Z,0
2022-11-21T02:20:32.714Z,0
2022-11-21T02:21:49.004Z,0
2022-11-21T02:23:04.314Z,0
2022-11-21T02:24:20.624Z,0
2022-11-21T02:25:36.900Z,0
2022-11-21T02:26:53.195Z,0
2022-11-21T02:28:09.495Z,0
2022-11-21T02:29:25.785Z,0
2022-11-21T02:30:42.095Z,0
2022-11-21T02:31:58.381Z,0
2022-11-21T02:33:14.672Z,0
2022-11-21T02:34:30.970Z,0
2022-11-21T02:35:47.270Z,0
2022-11-21T02:37:03.568Z,0
2022-11-21T02:38:19.860Z,0
2022-11-21T02:39:35.162Z,0
2022-11-21T02:40:51.462Z,0
2022-11-21T02:42:07.750Z,0
2022-11-21T02:43:24.063Z,0
2022-11-21T02:44:40.357Z,0
2022-11-21T02:45:56.638Z,0
2022-11-21T02:47:12.930Z,0
2022-11-21T02:48:29.233Z,0
2022-11-21T02:49:45.521Z,0
2022-11-21T02:51:01.817Z,0
2022-11-21T02:52:18.121Z,0
2022-11-21T02:53:34.418Z,0
2022-11-21T02:54:50.707Z,0
2022-11-21T02:56:06.017Z,0
2022-11-21T02:57:22.311Z,0
2022-11-21T02:58:38.602Z,0
2022-11-21T02:59:54.916Z,0
2022-11-21T03:01:11.207Z,0
2022-11-21T03:02:27.490Z,0
2022-11-21T03:03:43.783Z,0
2022-11-21T03:05:00.085Z,0
2022-11-21T03:06:16.370Z,0
2022-11-21T03:07:32.668Z,0
2022-11-21T03:08:48.963Z,0
2022-11-21T03:10:05.261Z,0
2022-11-21T03:11:21.556Z,0
2022-11-21T03:12:36.873Z,0
2022-11-21T03:13:53.164Z,0
2022-11-21T03:15:09.459Z,0
2022-11-21T03:16:25.751Z,0
2022-11-21T03:17:42.053Z,0
2022-11-21T03:18:58.350Z,0
2022-11-21T03:20:14.631Z,0
2022-11-21T03:21:30.927Z,0
2022-11-21T03:22:47.224Z,0
2022-11-21T03:24:03.522Z,0
2022-11-21T03:25:19.810Z,0
2022-11-21T03:26:36.119Z,0
2022-11-21T03:27:52.402Z,0
2022-11-21T03:29:07.721Z,0
2022-11-21T03:30:24.009Z,0
2022-11-21T03:31:40.311Z,0
2022-11-21T03:32:56.597Z,0
2022-11-21T03:34:12.893Z,0
2022-11-21T03:35:29.189Z,0
2022-11-21T03:36:45.484Z,0
2022-11-21T03:38:01.792Z,0
2022-11-21T03:39:18.077Z,0
2022-11-21T03:40:34.382Z,0
2022-11-21T03:41:50.672Z,0
2022-11-21T03:43:06.972Z,0
2022-11-21T03:44:23.265Z,0
2022-11-21T03:45:38.563Z,0
2022-11-21T03:46:54.867Z,0
2022-11-21T03:48:11.163Z,0
2022-11-21T03:49:27.465Z,0
2022-11-21T03:50:43.753Z,0
2022-11-21T03:52:00.042Z,0
2022-11-21T03:53:16.349Z,0
2022-11-21T03:54:32.629Z,0
2022-11-21T03:55:48.927Z,0
2022-11-21T03:57:05.228Z,0
2022-11-21T03:58:21.513Z,0
2022-11-21T03:59:37.815Z,0
2022-11-21T04:00:54.121Z,0
2022-11-21T04:02:09.417Z,0
2022-11-21T04:03:25.726Z,0
2022-11-21T04:04:42.023Z,0
2022-11-21T04:05:58.318Z,0
2022-11-21T04:07:14.602Z,0
2022-11-21T04:08:30.892Z,0
2022-11-21T04:09:47.186Z,0
2022-11-21T04:12:19.774Z,0
2022-11-21T04:13:36.080Z,0
2022-11-21T04:14:52.364Z,0
2022-11-21T04:16:08.661Z,0
2022-11-21T04:17:24.962Z,0
2022-11-21T04:18:40.282Z,0
2022-11-21T04:19:56.577Z,0
2022-11-21T04:21:12.856Z,0
2022-11-21T04:22:29.156Z,0
2022-11-21T04:23:45.446Z,0
2022-11-21T04:25:01.741Z,0
2022-11-21T04:26:18.040Z,0
2022-11-21T04:27:34.329Z,0
2022-11-21T04:28:50.634Z,0
2022-11-21T04:30:06.922Z,0
2022-11-21T04:31:23.231Z,0
2022-11-21T04:32:39.512Z,0
2022-11-21T04:33:55.806Z,0
2022-11-21T04:35:11.123Z,0
2022-11-21T04:36:27.418Z,0
2022-11-21T04:37:43.722Z,0
2022-11-21T04:39:00.000Z,0
2022-11-21T04:40:16.300Z,0
2022-11-21T04:41:32.595Z,0
2022-11-21T04:42:47.926Z,0
2022-11-21T04:44:04.211Z,0
2022-11-21T04:45:20.504Z,0
2022-11-21T04:46:36.810Z,0
2022-11-21T04:47:53.093Z,0
2022-11-21T04:49:09.389Z,0
2022-11-21T04:50:25.683Z,0
2022-11-21T04:51:41.984Z,0
2022-11-21T04:52:58.269Z,0
2022-11-21T04:54:14.568Z,0
2022-11-21T04:55:30.863Z,0
2022-11-21T04:56:47.162Z,0
2022-11-21T04:58:03.451Z,0
2022-11-21T04:59:18.761Z,0
2022-11-21T05:00:35.066Z,0
2022-11-21T05:03:07.645Z,0
2022-11-21T05:04:23.946Z,0
2022-11-21T05:05:40.233Z,0
2022-11-21T05:06:56.530Z,0
2022-11-21T05:08:12.832Z,0
2022-11-21T05:09:29.131Z,0
2022-11-21T05:10:45.411Z,0
2022-11-21T05:12:01.717Z,0
2022-11-21T05:13:18.006Z,0
2022-11-21T05:14:34.301Z,0
2022-11-21T05:15:49.609Z,0
2022-11-21T05:17:05.907Z,0
2022-11-21T05:18:22.200Z,0
2022-11-21T05:19:38.495Z,0
2022-11-21T05:20:54.790Z,0
2022-11-21T05:22:11.090Z,0
2022-11-21T05:23:27.393Z,0
2022-11-21T05:24:43.672Z,0
2022-11-21T05:25:59.974Z,0
2022-11-21T05:27:16.264Z,0
2022-11-21T05:28:32.565Z,0
2022-11-21T05:29:48.855Z,0
2022-11-21T05:31:05.151Z,0
2022-11-21T05:32:20.458Z,0
2022-11-21T05:33:36.768Z,0
2022-11-21T05:34:53.050Z,0
2022-11-21T05:36:09.351Z,0
2022-11-21T05:37:25.644Z,0
2022-11-21T05:38:41.942Z,0
2022-11-21T05:39:58.233Z,0
2022-11-21T05:41:14.535Z,0
2022-11-21T05:42:30.819Z,0
2022-11-21T05:43:47.111Z,0
2022-11-21T05:45:03.412Z,0
2022-11-21T05:46:19.710Z,0
2022-11-21T05:47:36.003Z,0
2022-11-21T05:48:51.326Z,0
2022-11-21T05:50:07.607Z,0
2022-11-21T05:51:23.900Z,0
2022-11-21T05:52:40.196Z,0
2022-11-21T05:53:56.490Z,0
2022-11-21T05:55:12.790Z,0
2022-11-21T05:56:29.079Z,0
2022-11-21T05:57:45.381Z,0
2022-11-21T05:59:01.670Z,0
2022-11-21T06:00:17.969Z,0
2022-11-21T06:01:34.261Z,0
2022-11-21T06:02:50.555Z,0
2022-11-21T06:04:06.848Z,0
2022-11-21T06:05:22.159Z,0
2022-11-21T06:06:38.406Z,1
2022-11-21T06:07:54.697Z,0
2022-11-21T06:09:10.957Z,1
2022-11-21T06:10:27.209Z,1
2022-11-21T06:11:43.432Z,1
2022-11-21T06:12:59.730Z,0
2022-11-21T06:14:15.983Z,2
2022-11-21T06:15:32.238Z,1
2022-11-21T06:16:48.459Z,1
2022-11-21T06:18:04.718Z,2
2022-11-21T06:19:20.956Z,1
2022-11-21T06:20:37.189Z,1
2022-11-21T06:21:52.456Z,4
2022-11-21T06:23:08.680Z,4
2022-11-21T06:24:24.926Z,10
2022-11-21T06:25:41.164Z,10
2022-11-21T06:26:57.424Z,10
2022-11-21T06:28:13.652Z,9
2022-11-21T06:29:29.890Z,12
2022-11-21T06:30:46.130Z,12
2022-11-21T06:32:02.375Z,15
2022-11-21T06:33:18.618Z,13
2022-11-21T06:34:34.869Z,13
2022-11-21T06:35:51.094Z,20
2022-11-21T06:37:07.336Z,20
2022-11-21T06:38:22.595Z,23
2022-11-21T06:39:38.833Z,30
2022-11-21T06:40:55.077Z,26
2022-11-21T06:42:11.317Z,30
2022-11-21T06:43:27.573Z,34
2022-11-21T06:44:43.794Z,37
2022-11-21T06:46:00.046Z,38
2022-11-21T06:47:16.284Z,43
2022-11-21T06:48:32.537Z,44
2022-11-21T06:49:48.762Z,46
2022-11-21T06:51:04.999Z,48
2022-11-21T06:52:21.241Z,48
2022-11-21T06:53:37.492Z,52
2022-11-21T06:54:52.741Z,54
2022-11-21T06:56:08.993Z,59
2022-11-21T06:57:25.222Z,65
2022-11-21T06:58:41.473Z,69
2022-11-21T06:59:57.714Z,72
2022-11-21T07:01:13.960Z,75
2022-11-21T07:02:30.193Z,86
2022-11-21T07:03:46.431Z,88
2022-11-21T07:05:02.677Z,97
2022-11-21T07:06:18.918Z,105
2022-11-21T07:07:35.151Z,116
2022-11-21T07:08:51.400Z,120
2022-11-21T07:10:07.642Z,129
2022-11-21T07:11:22.906Z,137
2022-11-21T07:12:39.130Z,143
2022-11-21T07:13:55.381Z,153
2022-11-21T07:15:11.615Z,165
2022-11-21T07:16:27.855Z,169
2022-11-21T07:17:44.105Z,179
2022-11-21T07:19:00.351Z,181
2022-11-21T07:20:16.590Z,182
2022-11-21T07:21:32.817Z,263
2022-11-21T07:22:49.077Z,242
2022-11-21T07:24:05.306Z,214
2022-11-21T07:25:21.540Z,218
2022-11-21T07:26:37.795Z,210
2022-11-21T07:27:53.060Z,246
2022-11-21T07:29:09.281Z,213
2022-11-21T07:30:25.526Z,214
2022-11-21T07:31:41.781Z,205
2022-11-21T07:32:58.007Z,229
2022-11-21T07:34:14.264Z,180
2022-11-21T07:35:30.497Z,246
2022-11-21T07:36:46.729Z,355
2022-11-21T07:38:02.974Z,295
2022-11-21T07:39:19.208Z,260
2022-11-21T07:40:35.463Z,248
2022-11-21T07:41:51.689Z,244
2022-11-21T07:43:07.931Z,247
2022-11-21T07:44:23.195Z,342
2022-11-21T07:45:39.441Z,379
2022-11-21T07:46:55.678Z,338
2022-11-21T07:48:11.925Z,336
2022-11-21T07:49:28.155Z,333
2022-11-21T07:50:44.404Z,402
2022-11-21T07:52:00.648Z,341
2022-11-21T07:53:16.881Z,465
2022-11-21T07:54:33.121Z,461
2022-11-21T07:55:49.367Z,369
2022-11-21T07:57:05.610Z,431
2022-11-21T07:58:21.848Z,483
2022-11-21T07:59:38.084Z,453
2022-11-21T08:00:53.342Z,451
2022-11-21T08:02:09.580Z,417
2022-11-21T08:03:25.835Z,444
2022-11-21T08:04:42.071Z,442
2022-11-21T08:05:58.312Z,403
2022-11-21T08:07:14.548Z,410
2022-11-21T08:08:30.791Z,418
2022-11-21T08:09:47.031Z,436
2022-11-21T08:11:03.272Z,448
2022-11-21T08:12:19.522Z,434
2022-11-21T08:13:35.751Z,370
2022-11-21T08:14:51.998Z,329
2022-11-21T08:16:08.233Z,348
2022-11-21T08:17:23.490Z,392
2022-11-21T08:18:39.731Z,406
2022-11-21T08:19:55.983Z,397
2022-11-21T08:21:12.214Z,455
2022-11-21T08:22:28.455Z,434
2022-11-21T08:23:44.699Z,407
2022-11-21T08:25:00.940Z,424
2022-11-21T08:26:17.176Z,460
2022-11-21T08:27:33.417Z,486
2022-11-21T08:28:49.667Z,458
2022-11-21T08:30:05.902Z,446
2022-11-21T08:31:22.145Z,407
2022-11-21T08:32:38.386Z,483
2022-11-21T08:33:53.646Z,524
2022-11-21T08:35:09.882Z,592
2022-11-21T08:36:26.122Z,585
2022-11-21T08:37:42.373Z,586
2022-11-21T08:38:58.603Z,677
2022-11-21T08:40:14.854Z,712
2022-11-21T08:41:31.086Z,775
2022-11-21T08:42:47.332Z,802
2022-11-21T08:44:03.572Z,888
2022-11-21T08:45:19.806Z,893
2022-11-21T08:46:36.059Z,856
2022-11-21T08:47:52.293Z,849
2022-11-21T08:49:08.000Z,870
2022-11-21T08:50:23.791Z,790
2022-11-21T08:51:40.029Z,822
2022-11-21T08:52:56.269Z,866
2022-11-21T08:54:12.514Z,819
2022-11-21T08:55:28.758Z,813
2022-11-21T08:56:45.003Z,907
2022-11-21T08:58:00.266Z,958
2022-11-21T08:59:16.507Z,901
2022-11-21T09:00:32.737Z,978
2022-11-21T09:01:48.977Z,1040
2022-11-21T09:03:05.228Z,1074
2022-11-21T09:04:21.464Z,1069
2022-11-21T09:05:37.702Z,1011
2022-11-21T09:06:53.948Z,993
2022-11-21T09:08:10.187Z,995
2022-11-21T09:09:26.431Z,984
2022-11-21T09:10:42.676Z,951
2022-11-21T09:11:58.908Z,889
2022-11-21T09:13:15.161Z,800
2022-11-21T09:14:30.419Z,912
2022-11-21T09:15:46.644Z,1124
2022-11-21T09:17:02.892Z,1190
2022-11-21T09:18:19.130Z,1206
2022-11-21T09:19:35.373Z,1172
2022-11-21T09:20:51.610Z,1120
2022-11-21T09:22:07.856Z,1191
2022-11-21T09:23:24.099Z,1261
2022-11-21T09:24:40.336Z,1298
2022-11-21T09:25:56.587Z,1315
2022-11-21T09:27:12.814Z,1270
2022-11-21T09:28:29.065Z,1249
2022-11-21T09:29:45.310Z,1319
2022-11-21T09:31:00.552Z,1380
2022-11-21T09:32:16.807Z,1523
2022-11-21T09:33:33.049Z,1689
2022-11-21T09:34:49.274Z,1930
2022-11-21T09:36:05.532Z,1824
2022-11-21T09:37:21.759Z,1526
2022-11-21T09:38:38.014Z,1388
2022-11-21T09:39:54.243Z,1348
2022-11-21T09:41:10.484Z,1404
2022-11-21T09:42:26.736Z,1480
2022-11-21T09:43:42.978Z,1456
2022-11-21T09:44:59.211Z,1362
2022-11-21T09:46:15.446Z,1277
2022-11-21T09:47:30.714Z,1194
2022-11-21T09:48:46.948Z,1180
2022-11-21T09:50:03.184Z,1263
2022-11-21T09:51:19.437Z,1377
2022-11-21T09:52:35.681Z,1457
2022-11-21T09:53:51.905Z,1487
2022-11-21T09:55:08.146Z,1426
2022-11-21T09:56:24.391Z,1416
2022-11-21T09:57:40.630Z,1397
2022-11-21T09:58:56.885Z,1383
2022-11-21T10:00:13.116Z,1411
2022-11-21T10:01:29.365Z,1510
2022-11-21T10:02:45.608Z,1570
2022-11-21T10:04:00.857Z,1594
2022-11-21T10:05:17.093Z,1604
2022-11-21T10:06:33.335Z,1562
2022-11-21T10:07:49.579Z,1445
2022-11-21T10:09:05.827Z,1337
2022-11-21T10:10:22.058Z,1302
2022-11-21T10:11:38.299Z,1249
2022-11-21T10:12:54.538Z,1104
2022-11-21T10:14:10.786Z,1030
2022-11-21T10:15:27.026Z,992
2022-11-21T10:16:43.264Z,826
2022-11-21T10:17:59.516Z,851
2022-11-21T10:19:15.751Z,1218
2022-11-21T10:20:31.007Z,1400
2022-11-21T10:21:47.254Z,1427
2022-11-21T10:23:03.487Z,1311
2022-11-21T10:24:19.735Z,1490
2022-11-21T10:25:35.982Z,1871
2022-11-21T10:26:52.201Z,2136
2022-11-21T10:28:08.458Z,2228
2022-11-21T10:29:24.000Z,2227
2022-11-21T10:30:40.934Z,2176
2022-11-21T10:31:57.178Z,2082
2022-11-21T10:33:13.413Z,1980
2022-11-21T10:34:29.656Z,1974
2022-11-21T10:35:45.891Z,1894
2022-11-21T10:37:01.163Z,1927
2022-11-21T10:38:17.389Z,2041
2022-11-21T10:39:33.634Z,2039
2022-11-21T10:40:49.885Z,1845
2022-11-21T10:42:06.111Z,1847
2022-11-21T10:43:22.360Z,1834
2022-11-21T10:44:38.597Z,1967
2022-11-21T10:45:54.833Z,1894
2022-11-21T10:47:11.091Z,1767
2022-11-21T10:48:27.323Z,1874
2022-11-21T10:49:43.563Z,2129
2022-11-21T10:50:59.804Z,2114
2022-11-21T10:52:16.041Z,2055
2022-11-21T10:53:31.297Z,1861
2022-11-21T10:54:47.542Z,1639
2022-11-21T10:56:03.778Z,1611
2022-11-21T10:57:20.022Z,1544
2022-11-21T10:58:36.269Z,1546
2022-11-21T10:59:52.508Z,1617
2022-11-21T11:01:08.743Z,1630
2022-11-21T11:02:24.991Z,1903
2022-11-21T11:03:41.223Z,3124
2022-11-21T11:04:57.476Z,3886
2022-11-21T11:06:13.711Z,3843
2022-11-21T11:07:29.951Z,1874
2022-11-21T11:08:46.199Z,3142
2022-11-21T11:10:01.451Z,10143
2022-11-21T11:11:17.691Z,5739
2022-11-21T11:12:33.929Z,4828
2022-11-21T11:13:50.171Z,2592
2022-11-21T11:15:06.420Z,5446
2022-11-21T11:16:22.664Z,7294
2022-11-21T11:17:38.885Z,16168
2022-11-21T11:18:55.145Z,8831
2022-11-21T11:20:11.373Z,4832
2022-11-21T11:21:27.606Z,11830
2022-11-21T11:22:43.860Z,7397
2022-11-21T11:24:00.093Z,6667
2022-11-21T11:25:16.341Z,5491
2022-11-21T11:26:31.599Z,4169
2022-11-21T11:27:47.831Z,3510
2022-11-21T11:29:04.084Z,3249
2022-11-21T11:30:20.327Z,3164
2022-11-21T11:31:36.553Z,3043
2022-11-21T11:32:52.789Z,3519
2022-11-21T11:34:09.037Z,3938
2022-11-21T11:35:25.280Z,4145
2022-11-21T11:36:41.516Z,3882
2022-11-21T11:37:57.772Z,3603
2022-11-21T11:39:14.000Z,3395
2022-11-21T11:40:30.245Z,2419
2022-11-21T11:41:46.479Z,3295
2022-11-21T11:43:01.746Z,3698
2022-11-21T11:44:17.985Z,3832
2022-11-21T11:45:34.221Z,3208
2022-11-21T11:46:50.467Z,2323
2022-11-21T11:48:06.701Z,3113
2022-11-21T11:49:22.959Z,3837
2022-11-21T11:50:39.183Z,3942
2022-11-21T11:51:55.429Z,3931
2022-11-21T11:53:11.666Z,3325
2022-11-21T11:54:27.908Z,3178
2022-11-21T11:55:44.149Z,3043
2022-11-21T11:57:00.396Z,2501
2022-11-21T11:58:16.632Z,2407
2022-11-21T11:59:32.868Z,2566
2022-11-21T12:00:48.134Z,3036
2022-11-21T12:02:04.367Z,2613
2022-11-21T12:03:20.607Z,3575
2022-11-21T12:04:36.842Z,3587
2022-11-21T12:05:53.090Z,3612
2022-11-21T12:07:09.329Z,3810
2022-11-21T12:08:25.577Z,3119
2022-11-21T12:09:41.807Z,2317
2022-11-21T12:10:58.054Z,2154
2022-11-21T12:12:14.301Z,2083
2022-11-21T12:13:30.000Z,1822
2022-11-21T12:14:46.772Z,2200
2022-11-21T12:16:03.022Z,2558
2022-11-21T12:17:18.267Z,2404
2022-11-21T12:18:34.510Z,2686
2022-11-21T12:19:50.764Z,3904
2022-11-21T12:21:07.009Z,4441
2022-11-21T12:22:23.242Z,3550
2022-11-21T12:23:39.475Z,2489
2022-11-21T12:24:55.718Z,1725
2022-11-21T12:26:11.960Z,2902
2022-11-21T12:27:28.200Z,3466
2022-11-21T12:28:44.440Z,3528
2022-11-21T12:30:00.679Z,3567
2022-11-21T12:31:16.921Z,2586
2022-11-21T12:32:33.162Z,2091
2022-11-21T12:33:48.424Z,2476
2022-11-21T12:35:04.657Z,2545
2022-11-21T12:36:20.899Z,2956
2022-11-21T12:37:37.138Z,2570
2022-11-21T12:38:53.389Z,2036
2022-11-21T12:40:09.633Z,1782
2022-11-21T12:41:25.861Z,1468
2022-11-21T12:42:42.112Z,1243
2022-11-21T12:43:58.342Z,1039
2022-11-21T12:45:14.591Z,1013
2022-11-21T12:46:30.829Z,1107
2022-11-21T12:47:47.075Z,1225
2022-11-21T12:49:03.317Z,1371
2022-11-21T12:50:18.564Z,1296
2022-11-21T12:51:34.804Z,1216
2022-11-21T12:52:51.044Z,1369
2022-11-21T12:54:07.300Z,1725
2022-11-21T12:55:23.523Z,1802
2022-11-21T12:56:39.768Z,1847
2022-11-21T12:57:56.010Z,1654
2022-11-21T12:59:12.267Z,1547
2022-11-21T13:00:28.488Z,1553
2022-11-21T13:01:44.733Z,1393
2022-11-21T13:03:00.977Z,1314
2022-11-21T13:04:17.214Z,1176
2022-11-21T13:05:33.464Z,1211
2022-11-21T13:06:48.717Z,1272
2022-11-21T13:08:04.960Z,1364
2022-11-21T13:09:21.200Z,1580
2022-11-21T13:10:37.433Z,1820
2022-11-21T13:11:53.673Z,1623
2022-11-21T13:13:08.957Z,1528
2022-11-21T13:14:25.183Z,1627
2022-11-21T13:15:41.426Z,1728
2022-11-21T13:16:57.660Z,1638
2022-11-21T13:18:13.900Z,1683
2022-11-21T13:19:30.152Z,1612
2022-11-21T13:20:46.394Z,1282
2022-11-21T13:22:02.628Z,1528
2022-11-21T13:23:18.869Z,1605
2022-11-21T13:24:35.115Z,1626
2022-11-21T13:25:51.354Z,1486
2022-11-21T13:27:07.602Z,1360
2022-11-21T13:28:23.835Z,1092
2022-11-21T13:29:39.089Z,962
2022-11-21T13:30:55.333Z,1016
2022-11-21T13:32:11.567Z,899
2022-11-21T13:33:27.818Z,856
2022-11-21T13:34:44.000Z,985
2022-11-21T13:36:00.290Z,848
2022-11-21T13:37:16.526Z,780
2022-11-21T13:38:32.775Z,660
2022-11-21T13:39:49.015Z,633
2022-11-21T13:41:05.256Z,639
2022-11-21T13:42:21.493Z,729
2022-11-21T13:43:37.749Z,716
2022-11-21T13:44:53.977Z,903
2022-11-21T13:46:09.246Z,794
2022-11-21T13:47:25.488Z,473
2022-11-21T13:48:41.734Z,622
2022-11-21T13:49:57.956Z,807
2022-11-21T13:51:14.215Z,605
2022-11-21T13:52:30.456Z,432
2022-11-21T13:53:46.685Z,475
2022-11-21T13:55:02.934Z,418
2022-11-21T13:56:19.161Z,384
2022-11-21T13:57:35.400Z,351
2022-11-21T13:58:51.645Z,396
2022-11-21T14:00:07.890Z,313
2022-11-21T14:01:24.120Z,324
2022-11-21T14:02:39.394Z,284
2022-11-21T14:03:55.624Z,273
2022-11-21T14:05:11.861Z,325
2022-11-21T14:06:28.111Z,381
2022-11-21T14:07:44.341Z,420
2022-11-21T14:09:00.583Z,449
2022-11-21T14:10:16.831Z,490
2022-11-21T14:11:33.000Z,557
2022-11-21T14:12:49.306Z,496
2022-11-21T14:14:05.557Z,415
2022-11-21T14:15:21.796Z,419
2022-11-21T14:16:38.033Z,424
2022-11-21T14:17:54.276Z,401
2022-11-21T14:19:09.531Z,365
2022-11-21T14:20:25.775Z,319
2022-11-21T14:21:42.006Z,292
2022-11-21T14:22:58.262Z,289
2022-11-21T14:24:14.492Z,274
2022-11-21T14:25:30.743Z,258
2022-11-21T14:26:46.979Z,278
2022-11-21T14:28:03.228Z,280
2022-11-21T14:29:19.463Z,248
2022-11-21T14:30:35.697Z,221
2022-11-21T14:31:51.938Z,229
2022-11-21T14:33:08.183Z,250
2022-11-21T14:34:24.436Z,249
2022-11-21T14:35:39.675Z,248
2022-11-21T14:36:55.922Z,253
2022-11-21T14:38:12.161Z,243
2022-11-21T14:39:28.404Z,218
2022-11-21T14:40:44.657Z,214
2022-11-21T14:42:00.879Z,226
2022-11-21T14:43:17.120Z,206
2022-11-21T14:44:33.361Z,175
2022-11-21T14:45:49.604Z,186
2022-11-21T14:47:05.847Z,201
2022-11-21T14:48:22.093Z,178
2022-11-21T14:49:38.330Z,186
2022-11-21T14:50:54.568Z,199
2022-11-21T14:52:09.827Z,197
2022-11-21T14:53:26.071Z,172
2022-11-21T14:54:42.310Z,158
2022-11-21T14:55:58.557Z,173
2022-11-21T14:57:14.787Z,159
2022-11-21T14:58:31.036Z,144
2022-11-21T14:59:47.269Z,135
2022-11-21T15:01:03.517Z,122
2022-11-21T15:02:19.758Z,115
2022-11-21T15:03:35.995Z,105
2022-11-21T15:04:52.238Z,96
2022-11-21T15:06:08.481Z,82
2022-11-21T15:07:24.719Z,74
2022-11-21T15:08:39.982Z,69
2022-11-21T15:09:56.218Z,64
2022-11-21T15:12:28.701Z,56
2022-11-21T15:13:44.942Z,49
2022-11-21T15:15:01.191Z,44
2022-11-21T15:16:17.423Z,49
2022-11-21T15:17:33.667Z,42
2022-11-21T15:18:49.906Z,38
2022-11-21T15:20:06.143Z,34
2022-11-21T15:21:22.391Z,30
2022-11-21T15:22:38.636Z,28
2022-11-21T15:23:54.878Z,22
2022-11-21T15:25:10.125Z,18
2022-11-21T15:26:26.375Z,15
2022-11-21T15:27:42.607Z,14
2022-11-21T15:28:58.848Z,11
2022-11-21T15:30:15.087Z,10
2022-11-21T15:31:31.330Z,5
2022-11-21T15:32:47.569Z,4
2022-11-21T15:34:03.814Z,3
2022-11-21T15:35:20.053Z,3
2022-11-21T15:36:36.296Z,2
2022-11-21T15:37:52.528Z,2
2022-11-21T15:39:08.786Z,2
2022-11-21T15:40:25.016Z,1
2022-11-21T15:41:40.269Z,1
2022-11-21T15:42:56.563Z,0
2022-11-21T15:44:12.870Z,0
2022-11-21T15:45:29.156Z,0
2022-11-21T15:46:45.453Z,0
2022-11-21T15:48:01.751Z,0
2022-11-21T15:49:18.047Z,0
2022-11-21T15:50:34.346Z,0
2022-11-21T15:51:50.632Z,0
2022-11-21T15:53:06.938Z,0
2022-11-21T15:54:23.232Z,0
2022-11-21T15:55:39.522Z,0
2022-11-21T15:56:55.821Z,0
2022-11-21T15:58:11.120Z,0
2022-11-21T15:59:27.417Z,0
2022-11-21T16:00:43.730Z,0
2022-11-21T16:02:00.010Z,0
2022-11-21T16:03:16.306Z,0
2022-11-21T16:04:32.612Z,0
2022-11-21T16:05:48.900Z,0
2022-11-21T16:07:05.190Z,0
2022-11-21T16:08:21.486Z,0
2022-11-21T16:09:37.781Z,0
2022-11-21T16:10:54.086Z,0
2022-11-21T16:12:10.372Z,0
2022-11-21T16:13:26.676Z,0
2022-11-21T16:14:41.976Z,0
2022-11-21T16:15:58.275Z,0
2022-11-21T16:17:14.562Z,0
2022-11-21T16:18:30.876Z,0
2022-11-21T16:19:47.161Z,0
2022-11-21T16:21:03.458Z,0
2022-11-21T16:22:19.745Z,0
2022-11-21T16:23:36.037Z,0
2022-11-21T16:24:52.336Z,0
2022-11-21T16:26:08.636Z,0
2022-11-21T16:27:24.939Z,0
2022-11-21T16:28:41.227Z,0
2022-11-21T16:29:57.516Z,0
2022-11-21T16:31:12.828Z,0
2022-11-21T16:32:29.132Z,0
2022-11-21T16:33:45.417Z,0
2022-11-21T16:36:18.016Z,0
2022-11-21T16:37:34.310Z,0
2022-11-21T16:38:50.609Z,0
2022-11-21T16:40:06.896Z,0
2022-11-21T16:41:23.186Z,0
2022-11-21T16:42:39.493Z,0
2022-11-21T16:43:55.777Z,0
2022-11-21T16:45:12.070Z,0
2022-11-21T16:46:28.368Z,0
2022-11-21T16:47:43.684Z,0
2022-11-21T16:48:59.973Z,0
2022-11-21T16:50:16.275Z,0
2022-11-21T16:51:32.573Z,0
2022-11-21T16:52:48.861Z,0
2022-11-21T16:54:05.153Z,0
2022-11-21T16:55:21.457Z,0
2022-11-21T16:56:37.758Z,0
2022-11-21T16:57:54.042Z,0
2022-11-21T16:59:10.334Z,0
2022-11-21T17:00:26.628Z,0
2022-11-21T17:01:42.927Z,0
2022-11-21T17:02:59.216Z,0
2022-11-21T17:04:14.532Z,0
2022-11-21T17:06:47.129Z,0
2022-11-21T17:08:03.422Z,0
2022-11-21T17:09:19.724Z,0
2022-11-21T17:10:36.001Z,0
2022-11-21T17:11:52.299Z,0
2022-11-21T17:13:08.590Z,0
2022-11-21T17:14:24.890Z,0
2022-11-21T17:15:41.186Z,0
2022-11-21T17:16:57.478Z,0
2022-11-21T17:18:13.781Z,0
2022-11-21T17:19:30.067Z,0
2022-11-21T17:20:45.375Z,0
2022-11-21T17:22:01.670Z,0
2022-11-21T17:23:17.968Z,0
2022-11-21T17:24:34.272Z,0
2022-11-21T17:25:50.559Z,0
2022-11-21T17:27:06.854Z,0
2022-11-21T17:28:22.179Z,0
2022-11-21T17:29:38.462Z,0
2022-11-21T17:30:54.760Z,0
2022-11-21T17:32:11.054Z,0
2022-11-21T17:33:27.350Z,0
2022-11-21T17:34:43.655Z,0
2022-11-21T17:35:59.946Z,0
2022-11-21T17:37:16.235Z,0
2022-11-21T17:38:32.534Z,0
2022-11-21T17:39:48.829Z,0
2022-11-21T17:41:05.119Z,0
2022-11-21T17:42:21.429Z,0
2022-11-21T17:43:37.718Z,0
2022-11-21T17:44:53.037Z,0
2022-11-21T17:46:09.320Z,0
2022-11-21T17:47:25.612Z,0
2022-11-21T17:48:41.916Z,0
2022-11-21T17:49:58.208Z,0
2022-11-21T17:51:14.492Z,0
2022-11-21T17:52:30.794Z,0
2022-11-21T17:53:47.084Z,0
2022-11-21T17:55:03.386Z,0
2022-11-21T17:56:19.681Z,0
2022-11-21T17:57:35.969Z,0
2022-11-21T17:58:52.264Z,0
2022-11-21T18:00:08.561Z,0
2022-11-21T18:01:24.861Z,0
2022-11-21T18:02:40.165Z,0
2022-11-21T18:03:56.458Z,0
2022-11-21T18:05:12.764Z,0